createdAt,value
2022-12-03T00:01:03.724Z,51.00
2022-12-03T00:04:07.028Z,50.97
2022-12-03T00:07:10.250Z,50.98
2022-12-03T00:10:13.944Z,50.86
2022-12-03T00:13:17.240Z,50.96
2022-12-03T00:16:20.735Z,50.98
2022-12-03T00:19:24.092Z,50.99
2022-12-03T00:22:27.658Z,51.13
2022-12-03T00:25:31.010Z,50.97
2022-12-03T00:28:41.689Z,50.92
2022-12-03T00:31:46.129Z,51.19
2022-12-03T00:34:49.389Z,51.33
2022-12-03T00:37:52.661Z,50.91
2022-12-03T00:40:55.973Z,50.67
2022-12-03T00:43:59.217Z,50.39
2022-12-03T00:47:02.541Z,50.70
2022-12-03T00:50:07.132Z,51.11
2022-12-03T00:53:10.328Z,50.93
2022-12-03T00:56:13.568Z,50.05
2022-12-03T00:59:16.776Z,49.41
2022-12-03T01:02:20.089Z,49.46
2022-12-03T01:05:23.370Z,49.15
2022-12-03T01:08:26.590Z,49.46
2022-12-03T01:11:38.668Z,49.00
2022-12-03T01:14:42.050Z,49.12
2022-12-03T01:17:45.362Z,48.86
2022-12-03T01:20:48.579Z,48.57
2022-12-03T01:23:51.755Z,48.83
2022-12-03T01:26:56.718Z,49.16
2022-12-03T01:29:59.977Z,49.01
2022-12-03T01:33:03.159Z,48.58
2022-12-03T01:36:06.621Z,47.67
2022-12-03T01:39:39.772Z,47.24
2022-12-03T01:42:40.516Z,47.37
2022-12-03T01:45:44.020Z,46.84
2022-12-03T01:48:48.890Z,46.92
2022-12-03T01:51:53.567Z,46.80
2022-12-03T01:55:00.616Z,46.87
2022-12-03T01:58:04.296Z,46.40
2022-12-03T02:01:16.727Z,46.17
2022-12-03T02:04:23.366Z,45.93
2022-12-03T02:07:29.425Z,45.46
2022-12-03T02:10:36.798Z,45.05
2022-12-03T02:13:40.142Z,44.63
2022-12-03T02:16:44.430Z,45.45
2022-12-03T02:19:47.833Z,44.63
2022-12-03T02:23:07.966Z,44.95
2022-12-03T02:26:11.748Z,44.42
2022-12-03T02:29:15.017Z,44.05
2022-12-03T02:32:18.406Z,44.50
2022-12-03T02:35:31.281Z,44.18
2022-12-03T02:38:36.553Z,44.30
2022-12-03T02:41:58.171Z,44.64
2022-12-03T02:45:05.623Z,44.07
2022-12-03T02:48:14.468Z,44.14
2022-12-03T02:51:19.205Z,44.18
2022-12-03T02:54:22.542Z,44.32
2022-12-03T02:57:25.798Z,43.75
2022-12-03T03:00:29.373Z,43.85
2022-12-03T03:03:33.816Z,43.97
2022-12-03T03:06:37.113Z,44.25
2022-12-03T03:09:40.311Z,43.91
2022-12-03T03:12:43.853Z,43.58
2022-12-03T03:15:47.360Z,43.44
2022-12-03T03:18:50.569Z,43.34
2022-12-03T03:21:55.021Z,43.28
2022-12-03T03:24:58.220Z,43.90
2022-12-03T03:28:01.739Z,44.43
2022-12-03T03:31:07.719Z,42.74
2022-12-03T03:34:11.455Z,42.48
2022-12-03T03:37:14.826Z,42.90
2022-12-03T03:40:18.207Z,42.88
2022-12-03T03:43:23.336Z,42.92
2022-12-03T03:46:27.808Z,42.30
2022-12-03T03:49:31.111Z,42.13
2022-12-03T03:52:37.399Z,41.68
2022-12-03T03:55:42.012Z,41.88
2022-12-03T03:58:45.584Z,41.60
2022-12-03T04:01:48.921Z,41.40
2022-12-03T04:04:52.987Z,42.20
2022-12-03T04:07:56.622Z,41.67
2022-12-03T04:11:21.102Z,41.91
2022-12-03T04:14:26.072Z,41.07
2022-12-03T04:17:31.873Z,41.85
2022-12-03T04:20:35.136Z,42.07
2022-12-03T04:23:42.767Z,41.81
2022-12-03T04:27:05.889Z,42.05
2022-12-03T04:30:59.161Z,41.96
2022-12-03T04:34:20.716Z,42.25
2022-12-03T04:37:24.275Z,42.03
2022-12-03T04:40:45.966Z,42.26
2022-12-03T04:44:07.485Z,41.93
2022-12-03T04:47:20.348Z,41.95
2022-12-03T04:50:23.630Z,41.82
2022-12-03T04:53:30.710Z,41.59
2022-12-03T04:56:34.131Z,41.96
2022-12-03T04:59:39.681Z,41.70
2022-12-03T05:02:44.165Z,41.96
2022-12-03T05:05:52.160Z,41.46
2022-12-03T05:12:35.211Z,41.22
2022-12-03T05:15:38.429Z,41.38
2022-12-03T05:18:41.626Z,42.00
2022-12-03T05:21:44.885Z,42.05
2022-12-03T05:24:48.056Z,41.61
2022-12-03T05:27:51.286Z,41.60
2022-12-03T05:30:54.779Z,42.09
2022-12-03T05:33:58.009Z,42.16
2022-12-03T05:37:01.530Z,41.50
2022-12-03T05:40:05.536Z,42.19
2022-12-03T05:43:09.047Z,41.92
2022-12-03T05:46:14.644Z,41.60
2022-12-03T05:49:18.003Z,42.14
2022-12-03T05:52:21.729Z,42.41
2022-12-03T05:55:26.040Z,42.08
2022-12-03T05:58:33.417Z,41.81
2022-12-03T06:01:36.656Z,41.38
2022-12-03T06:04:43.265Z,41.68
2022-12-03T06:07:47.970Z,41.38
2022-12-03T06:10:51.383Z,41.35
2022-12-03T06:13:54.561Z,41.73
2022-12-03T06:17:38.614Z,42.30
2022-12-03T06:20:44.816Z,42.02
2022-12-03T06:23:51.738Z,41.79
2022-12-03T06:27:01.055Z,42.39
2022-12-03T06:30:05.309Z,42.30
2022-12-03T06:33:08.893Z,42.03
2022-12-03T06:36:12.192Z,42.21
2022-12-03T06:39:15.378Z,42.12
2022-12-03T06:42:18.692Z,41.85
2022-12-03T06:45:21.934Z,41.77
2022-12-03T06:48:25.274Z,41.81
2022-12-03T06:51:28.692Z,41.97
2022-12-03T06:54:32.133Z,42.06
2022-12-03T06:57:35.419Z,42.10
2022-12-03T07:00:38.795Z,42.76
2022-12-03T07:03:42.041Z,42.09
2022-12-03T07:06:45.364Z,42.68
2022-12-03T07:09:50.137Z,43.02
2022-12-03T07:12:53.416Z,42.95
2022-12-03T07:15:56.839Z,43.47
2022-12-03T07:19:00.074Z,43.29
2022-12-03T07:22:04.240Z,43.30
2022-12-03T07:25:08.080Z,43.22
2022-12-03T07:28:11.287Z,43.38
2022-12-03T07:31:14.885Z,43.66
2022-12-03T07:34:18.163Z,43.88
2022-12-03T07:37:23.345Z,44.23
2022-12-03T07:40:26.800Z,44.23
2022-12-03T07:43:30.012Z,44.14
2022-12-03T07:46:33.208Z,44.56
2022-12-03T07:49:36.444Z,44.63
2022-12-03T07:52:39.777Z,44.34
2022-12-03T07:55:43.181Z,44.15
2022-12-03T07:58:46.317Z,44.36
2022-12-03T08:01:49.626Z,44.76
2022-12-03T08:04:53.135Z,44.83
2022-12-03T08:07:57.103Z,45.30
2022-12-03T08:11:02.646Z,45.57
2022-12-03T08:14:14.224Z,45.95
2022-12-03T08:17:19.176Z,46.42
2022-12-03T08:20:25.090Z,46.22
2022-12-03T08:23:29.102Z,46.79
2022-12-03T08:26:32.347Z,46.82
2022-12-03T08:29:35.622Z,47.18
2022-12-03T08:32:38.747Z,47.27
2022-12-03T08:35:46.465Z,47.48
2022-12-03T08:38:53.252Z,47.92
2022-12-03T08:42:39.672Z,47.65
2022-12-03T08:45:43.393Z,47.88
2022-12-03T08:48:49.451Z,48.05
2022-12-03T08:52:00.633Z,47.77
2022-12-03T08:55:32.489Z,47.90
2022-12-03T08:58:42.850Z,48.68
2022-12-03T09:01:48.021Z,48.39
2022-12-03T09:04:53.438Z,48.34
2022-12-03T09:07:56.942Z,48.57
2022-12-03T09:11:00.229Z,48.32
2022-12-03T09:14:03.463Z,48.39
2022-12-03T09:17:06.814Z,48.30
2022-12-03T09:20:10.811Z,48.29
2022-12-03T09:23:14.009Z,48.22
2022-12-03T09:26:17.196Z,48.55
2022-12-03T09:29:20.374Z,48.14
2022-12-03T09:32:23.753Z,48.54
2022-12-03T09:35:28.258Z,48.06
2022-12-03T09:41:48.286Z,48.24
2022-12-03T09:44:51.684Z,47.70
2022-12-03T09:47:56.344Z,47.56
2022-12-03T09:50:59.817Z,47.67
2022-12-03T09:54:05.634Z,47.83
2022-12-03T09:57:14.089Z,48.38
2022-12-03T10:03:37.536Z,47.78
2022-12-03T10:06:45.841Z,48.12
2022-12-03T10:09:49.599Z,48.57
2022-12-03T10:12:53.694Z,48.21
2022-12-03T10:16:00.782Z,48.43
2022-12-03T10:19:04.122Z,48.06
2022-12-03T10:22:07.486Z,48.50
2022-12-03T10:25:17.806Z,48.76
2022-12-03T10:28:37.405Z,48.96
2022-12-03T10:31:40.676Z,49.01
2022-12-03T10:34:45.334Z,49.28
2022-12-03T10:38:17.410Z,48.87
2022-12-03T10:41:26.735Z,48.51
2022-12-03T10:44:31.256Z,48.16
2022-12-03T10:47:34.597Z,48.60
2022-12-03T10:50:48.534Z,48.44
2022-12-03T10:53:51.997Z,48.77
2022-12-03T10:56:55.322Z,48.43
2022-12-03T10:59:58.924Z,48.56
2022-12-03T11:03:02.771Z,48.93
2022-12-03T11:06:06.253Z,48.62
2022-12-03T11:09:27.815Z,48.75
2022-12-03T11:12:35.299Z,48.68
2022-12-03T11:15:46.251Z,48.89
2022-12-03T11:18:59.699Z,48.55
2022-12-03T11:22:05.985Z,48.35
2022-12-03T11:25:30.201Z,48.47
2022-12-03T11:28:35.747Z,48.63
2022-12-03T11:31:41.004Z,49.23
2022-12-03T11:34:44.739Z,48.96
2022-12-03T11:37:47.833Z,48.80
2022-12-03T11:41:23.205Z,48.58
2022-12-03T11:44:32.349Z,48.65
2022-12-03T11:47:41.555Z,49.07
2022-12-03T11:50:51.731Z,48.94
2022-12-03T11:53:58.361Z,48.93
2022-12-03T11:57:02.011Z,48.77
2022-12-03T12:00:24.844Z,48.60
2022-12-03T12:03:33.295Z,49.07
2022-12-03T12:06:47.489Z,49.53
2022-12-03T12:09:56.408Z,49.80
2022-12-03T12:12:59.773Z,49.90
2022-12-03T12:16:05.841Z,49.95
2022-12-03T12:19:38.407Z,50.10
2022-12-03T12:22:41.674Z,50.25
2022-12-03T12:25:48.248Z,50.48
2022-12-03T12:28:54.096Z,50.12
2022-12-03T12:32:17.865Z,50.41
2022-12-03T12:35:25.994Z,50.54
2022-12-03T12:38:29.654Z,50.76
2022-12-03T12:41:33.601Z,50.83
2022-12-03T12:44:36.805Z,51.17
2022-12-03T12:47:58.087Z,50.85
2022-12-03T12:51:17.487Z,51.03
2022-12-03T12:54:20.755Z,50.96
2022-12-03T12:57:25.056Z,50.89
2022-12-03T13:00:28.226Z,50.86
2022-12-03T13:03:36.924Z,50.87
2022-12-03T13:06:41.785Z,50.97
2022-12-03T13:09:44.907Z,50.97
2022-12-03T13:12:49.586Z,51.02
2022-12-03T13:15:52.853Z,50.96
2022-12-03T13:19:00.611Z,50.97
2022-12-03T13:22:15.954Z,51.29
2022-12-03T13:29:12.381Z,50.86
2022-12-03T13:32:21.427Z,51.15
2022-12-03T13:35:35.859Z,51.08
2022-12-03T13:38:39.085Z,51.27
2022-12-03T13:42:03.473Z,51.17
2022-12-03T13:45:15.850Z,50.74
2022-12-03T13:48:24.753Z,50.99
2022-12-03T13:51:33.238Z,51.19
2022-12-03T13:54:39.825Z,51.36
2022-12-03T13:57:42.952Z,51.15
2022-12-03T14:00:46.567Z,51.40
2022-12-03T14:03:51.224Z,50.75
2022-12-03T14:06:54.441Z,50.89
2022-12-03T14:09:57.696Z,50.75
2022-12-03T14:13:01.142Z,50.65
2022-12-03T14:16:04.511Z,50.89
2022-12-03T14:19:07.879Z,51.15
2022-12-03T14:22:12.472Z,51.21
2022-12-03T14:25:15.879Z,51.37
2022-12-03T14:28:19.032Z,51.44
2022-12-03T14:31:22.241Z,51.30
2022-12-03T14:34:25.430Z,51.15
2022-12-03T14:37:28.657Z,51.39
2022-12-03T14:40:31.855Z,51.09
2022-12-03T14:43:35.084Z,50.85
2022-12-03T14:46:38.288Z,51.03
2022-12-03T14:49:41.551Z,50.77
2022-12-03T14:52:44.724Z,50.69
2022-12-03T14:55:48.692Z,50.96
2022-12-03T14:58:51.958Z,50.81
2022-12-03T15:01:55.434Z,50.80
2022-12-03T15:04:58.934Z,50.89
2022-12-03T15:08:02.135Z,50.91
2022-12-03T15:11:05.605Z,51.16
2022-12-03T15:14:09.248Z,51.33
2022-12-03T15:17:12.542Z,51.26
2022-12-03T15:20:15.867Z,51.33
2022-12-03T15:23:19.075Z,51.32
2022-12-03T15:26:22.533Z,51.32
2022-12-03T15:29:25.907Z,51.58
2022-12-03T15:32:29.028Z,51.54
2022-12-03T15:35:32.245Z,51.79
2022-12-03T15:38:35.463Z,51.77
2022-12-03T15:41:40.219Z,51.95
2022-12-03T15:44:43.372Z,52.08
2022-12-03T15:47:46.858Z,52.08
2022-12-03T15:50:49.988Z,52.25
2022-12-03T15:53:53.311Z,52.64
2022-12-03T15:56:57.842Z,52.63
2022-12-03T16:00:01.395Z,52.92
2022-12-03T16:03:04.590Z,53.07
2022-12-03T16:06:08.069Z,53.08
2022-12-03T16:09:11.454Z,53.28
2022-12-03T16:12:14.851Z,53.27
2022-12-03T16:15:22.107Z,53.26
2022-12-03T16:18:29.698Z,53.21
2022-12-03T16:21:35.193Z,53.29
2022-12-03T16:24:38.614Z,53.40
2022-12-03T16:27:41.795Z,53.40
2022-12-03T16:30:45.014Z,53.50
2022-12-03T16:33:48.591Z,53.70
2022-12-03T16:36:51.772Z,53.69
2022-12-03T16:39:55.211Z,53.95
2022-12-03T16:42:58.762Z,54.08
2022-12-03T16:46:17.150Z,54.35
2022-12-03T16:49:20.362Z,54.18
2022-12-03T16:52:23.698Z,54.16
2022-12-03T16:55:26.921Z,54.13
2022-12-03T16:58:30.601Z,54.05
2022-12-03T17:01:33.919Z,54.29
2022-12-03T17:04:37.173Z,54.30
2022-12-03T17:07:40.551Z,54.30
2022-12-03T17:10:44.719Z,54.21
2022-12-03T17:13:48.020Z,54.20
2022-12-03T17:16:51.241Z,54.28
2022-12-03T17:19:54.606Z,54.30
2022-12-03T17:22:58.810Z,54.38
2022-12-03T17:26:01.929Z,54.38
2022-12-03T17:29:05.204Z,54.37
2022-12-03T17:32:08.386Z,54.39
2022-12-03T17:35:12.359Z,54.49
2022-12-03T17:38:15.877Z,54.74
2022-12-03T17:41:19.236Z,54.50
2022-12-03T17:44:22.496Z,54.64
2022-12-03T17:47:25.843Z,54.69
2022-12-03T17:50:28.944Z,54.62
2022-12-03T17:53:32.325Z,54.68
2022-12-03T17:56:35.588Z,54.72
2022-12-03T17:59:38.761Z,54.59
2022-12-03T18:02:42.009Z,54.71
2022-12-03T18:05:45.188Z,54.64
2022-12-03T18:08:48.334Z,54.47
2022-12-03T18:11:51.568Z,54.46
2022-12-03T18:14:54.762Z,54.56
2022-12-03T18:17:57.948Z,54.62
2022-12-03T18:21:04.926Z,54.65
2022-12-03T18:24:08.519Z,54.83
2022-12-03T18:27:11.819Z,54.84
2022-12-03T18:30:15.285Z,54.75
2022-12-03T18:33:18.709Z,54.67
2022-12-03T18:36:25.315Z,54.58
2022-12-03T18:39:34.406Z,54.44
2022-12-03T18:42:37.623Z,54.57
2022-12-03T18:45:41.355Z,54.66
2022-12-03T18:48:46.049Z,54.68
2022-12-03T18:51:53.334Z,54.62
2022-12-03T18:55:01.564Z,54.64
2022-12-03T18:58:04.954Z,54.72
2022-12-03T19:01:11.395Z,54.73
2022-12-03T19:04:14.568Z,54.71
2022-12-03T19:07:17.705Z,54.74
2022-12-03T19:10:20.810Z,54.67
2022-12-03T19:13:24.753Z,54.74
2022-12-03T19:16:28.025Z,54.78
2022-12-03T19:19:31.292Z,54.81
2022-12-03T19:22:34.471Z,54.92
2022-12-03T19:25:38.986Z,55.08
2022-12-03T19:28:43.537Z,55.29
2022-12-03T19:31:46.806Z,55.33
2022-12-03T19:34:49.990Z,55.35
2022-12-03T19:37:54.391Z,55.35
2022-12-03T19:41:07.076Z,55.41
2022-12-03T19:44:16.210Z,55.32
2022-12-03T19:47:20.484Z,55.34
2022-12-03T19:50:23.854Z,55.29
2022-12-03T19:53:27.959Z,55.25
2022-12-03T19:56:31.198Z,55.31
2022-12-03T19:59:35.629Z,55.40
2022-12-03T20:02:38.971Z,55.31
2022-12-03T20:05:43.432Z,55.48
2022-12-03T20:08:47.323Z,55.56
2022-12-03T20:11:52.369Z,55.74
2022-12-03T20:14:55.816Z,55.83
2022-12-03T20:17:58.976Z,55.99
2022-12-03T20:21:02.903Z,56.01
2022-12-03T20:24:06.621Z,56.21
2022-12-03T20:27:09.865Z,56.26
2022-12-03T20:30:13.426Z,56.33
2022-12-03T20:33:16.567Z,56.47
2022-12-03T20:36:24.362Z,56.43
2022-12-03T20:39:27.468Z,56.57
2022-12-03T20:42:30.628Z,56.63
2022-12-03T20:45:33.779Z,56.70
2022-12-03T20:48:37.788Z,56.84
2022-12-03T20:51:41.789Z,56.85
2022-12-03T20:54:45.012Z,56.86
2022-12-03T20:57:48.224Z,56.91
2022-12-03T21:00:51.618Z,56.89
2022-12-03T21:03:56.914Z,56.84
2022-12-03T21:07:00.107Z,56.87
2022-12-03T21:10:03.474Z,56.91
2022-12-03T21:13:06.871Z,56.91
2022-12-03T21:16:12.575Z,57.03
2022-12-03T21:19:17.582Z,56.98
2022-12-03T21:22:20.813Z,57.03
2022-12-03T21:25:23.947Z,57.20
2022-12-03T21:28:27.170Z,57.19
2022-12-03T21:31:32.143Z,57.16
2022-12-03T21:34:36.572Z,57.20
2022-12-03T21:37:39.836Z,57.22
2022-12-03T21:40:43.216Z,57.47
2022-12-03T21:43:46.783Z,57.44
2022-12-03T21:47:09.561Z,57.43
2022-12-03T21:50:13.127Z,57.45
2022-12-03T21:53:16.474Z,57.53
2022-12-03T21:56:20.651Z,57.55
2022-12-03T21:59:23.803Z,57.53
2022-12-03T22:02:28.653Z,57.75
2022-12-03T22:05:31.864Z,57.82
2022-12-03T22:08:35.054Z,57.76
2022-12-03T22:11:38.325Z,57.75
2022-12-03T22:14:41.700Z,57.85
2022-12-03T22:17:44.818Z,57.87
2022-12-03T22:20:48.030Z,58.09
2022-12-03T22:23:51.232Z,58.27
2022-12-03T22:26:55.359Z,58.44
2022-12-03T22:29:58.680Z,58.53
2022-12-03T22:33:01.856Z,58.66
2022-12-03T22:36:08.428Z,58.59
2022-12-03T22:39:11.622Z,58.56
2022-12-03T22:42:14.872Z,58.48
2022-12-03T22:45:18.006Z,58.42
2022-12-03T22:48:21.431Z,58.31
2022-12-03T22:51:26.471Z,58.29
2022-12-03T22:54:29.588Z,58.22
2022-12-03T22:57:33.008Z,58.23
2022-12-03T23:00:39.036Z,58.13
2022-12-03T23:03:42.176Z,58.43
2022-12-03T23:06:45.442Z,58.15
2022-12-03T23:09:48.599Z,58.23
2022-12-03T23:12:51.920Z,58.08
2022-12-03T23:15:55.168Z,58.08
2022-12-03T23:19:00.460Z,58.16
2022-12-03T23:22:03.665Z,58.51
2022-12-03T23:25:07.945Z,58.51
2022-12-03T23:28:13.086Z,58.49
2022-12-03T23:31:22.328Z,58.54
2022-12-03T23:34:25.532Z,58.65
2022-12-03T23:37:28.777Z,58.61
2022-12-03T23:40:31.975Z,58.64
2022-12-03T23:43:35.169Z,58.63
2022-12-03T23:46:40.742Z,58.65
2022-12-03T23:49:44.053Z,58.41
2022-12-03T23:52:47.233Z,58.54
2022-12-03T23:55:50.701Z,58.65
2022-12-03T23:58:53.999Z,58.79
